Airfield :
LOGIN :

Register | Disclaimer

   EN    FR    IT 

 










Legend :    VFR   Marginal VFR   IFR   Intensive IFR   Very Intensive IFR
Visi :
Ceiling :
>= 8 km
>= 3000ft
5 to 8 km
1000 to 3000 ft
1500m to 5 km
500 to 1000 ft
800 to 1500m
200 to 500 ft
< 800m
< 200 ft
Symbols :   Thunderstorms  Fog  Heavy snow  Heavy precipitations  Wind > 20 kt
SIGMETs :     Misc.  Thunderstorms  Icing  Turbulence  Mountain Waves  Volcanic Ashes






- Airport Elevation : 194 ft
- IATA code : LME


LFRM - Le Mans

CURRENT METAR :
  • 160400Z AUTO 20010KT 170V230 9999 BKN012 BKN017 OVC029 14/13 Q1009

EXPIRED METARs :
  • 160330Z AUTO 20012KT 160V220 9999 -RA BKN014 OVC022 14/13 Q1009
  • 160300Z AUTO 19009KT 160V230 9999 SCT015 BKN024 OVC036 14/13 Q1009
  • 160230Z AUTO 19007KT 160V220 9999 FEW011 BKN036 OVC066 14/13 Q1010
  • 160200Z AUTO 18007KT 9999 FEW011 BKN018 OVC034 14/13 Q1010
  • 160130Z AUTO 18007KT 140V210 9999 -RA BKN008/// BKN014/// OVC021/// ///TCU 13/13 Q1010

TAF TAF LFRM
Valid from the 15 at 18:00 until the 16 at 18:00 UTC


151700Z 1518/1618 23008KT 9999 BKN030
TEMPO 1518/1522 4500 -SHRA BKN020TCU
BECMG 1522/1524 -RA BKN014
TEMPO 1605/1618 20015G28KT
TEMPO 1612/1618 2000 RA BKN009



MET'MAP, your aeronautical weather chart ! - Copyright ORBIFLY December 2007 - Disclaimer

ORBIFLY MET'MAP TEAM :

Programming & Development : Alexandra Zaïnal
Concept & Development : Baudouin d'Aumeries
Co-Development & Prog : Marc-Olivier Méhu
Technical & hardware support : Manuel Goepfert

Contact : metmap@orbifly.com




SOURCES & CREDITS :

   NOAA